หน้าหลัก
METAR-TAF:

METAR-TAF

ท่าอากาศยาน :

Kristiansund, นอร์เวย์

ละติจูด: 63-07N, ลองจิจูด: 007-50E, ความสูง: 6 ม.

การสังเกตสภาพอากาศปัจจุบัน

รายงานได้ทำขึ้นเมื่อ 41 นาทีที่แล้ว ณ เวลา 00:50 UTC
ลม 4 นอตจากตะวันออก/ตะวันออกเฉียงใต้, แปรผันระหว่างตะวันออก/ตะวันออกเฉียงเหนือ และใต้/ตะวันออกเฉียงใต้
อุณหภูมิ 18°C
ความชื้น 64%
ความกดอากาศ 1015 hPa
ทัศนวิสัย 10 กม. หรือมากกว่า

METAR: ENKB 200050Z AUTO 11004KT 060V150 9999 OVC087/// 18/11 Q1015 RMK WIND 745FT 14014KT

เวลา: 03:31 (01:31 UTC)

การพยากรณ์

รายงานได้ทำขึ้นเมื่อ 11 ชั่วโมงและ 31 นาทีที่แล้ว ณ เวลา 14:00 UTC
การพยากรณ์มีผลตั้งแต่วันที่ 19 ณ เวลา 15 UTC จนถึงวันที่ 19 ณ เวลา 22 UTC
ลม 8 นอตจากตะวันออกเฉียงเหนือ
ทัศนวิสัย 10 กม. หรือมากกว่า
ไม่มีเมฆต่ำกว่า 1,500 ม. และไม่มีเมฆคิวมูโลนิมบัส

TAF: ENKB 191400Z 1915/1922 05008KT CAVOK

สังเกตการณ์สภาพอากาศและพยากรณ์อากาศของสนามบินมากกว่า 4000 แห่ง (รายงาน METAR และ TAF).

สถานีที่ดูได้จะแสดงไว้ด้วยจุดสีเหลืองและสีแดงบนแผนที่.

เลื่อนเมาส์ไปเหนือจุดเพื่อดูชื่อสถานี.

แล้วคลิกเพื่อดูสังเกตการณ์และการพยากรณ์สภาพอากาศ.

ในการเปลี่ยนแผนที่: คลิกที่ปุ่มสีเขียวที่มีกากบาทสีดำเพื่อซูมเข้า; ที่ปุ่มสีเขียวที่มีขีดเพื่อซูมออก; หรือที่ลูกศรสีเขียวเพื่อไปยังแผนที่ที่อยู่ติดกัน.


METAR-TAF: